createdAt,value
2018-06-27T00:01:56.430Z,16.51
2018-06-27T00:04:25.019Z,16.56
2018-06-27T00:06:53.746Z,16.56
2018-06-27T00:09:22.424Z,16.57
2018-06-27T00:11:51.204Z,16.58
2018-06-27T00:14:20.138Z,16.52
2018-06-27T00:16:49.019Z,16.51
2018-06-27T00:19:17.992Z,16.52
2018-06-27T00:21:46.975Z,16.51
2018-06-27T00:24:15.835Z,16.45
2018-06-27T00:26:44.728Z,16.41
2018-06-27T00:29:13.618Z,16.36
2018-06-27T00:31:44.898Z,16.33
2018-06-27T00:34:13.431Z,16.34
2018-06-27T00:36:42.049Z,16.27
2018-06-27T00:39:10.813Z,16.21
2018-06-27T00:41:39.618Z,16.15
2018-06-27T00:44:08.542Z,16.30
2018-06-27T00:46:37.336Z,16.22
2018-06-27T00:49:06.035Z,16.16
2018-06-27T00:51:35.116Z,16.16
2018-06-27T00:54:07.737Z,16.19
2018-06-27T00:56:40.828Z,16.17
2018-06-27T00:59:09.721Z,16.33
2018-06-27T01:01:39.003Z,16.34
2018-06-27T01:04:08.103Z,16.29
2018-06-27T01:06:37.147Z,16.31
2018-06-27T01:09:08.861Z,16.23
2018-06-27T01:11:37.988Z,16.39
2018-06-27T01:14:06.899Z,16.70
2018-06-27T01:16:35.860Z,16.70
2018-06-27T01:19:04.920Z,16.55
2018-06-27T01:21:34.275Z,16.43
2018-06-27T01:24:03.316Z,16.43
2018-06-27T01:26:32.368Z,16.39
2018-06-27T01:29:01.267Z,16.30
2018-06-27T01:31:30.166Z,16.27
2018-06-27T01:33:59.220Z,16.39
2018-06-27T01:36:28.333Z,16.43
2018-06-27T01:38:57.182Z,16.51
2018-06-27T01:41:25.997Z,16.40
2018-06-27T01:43:54.520Z,16.35
2018-06-27T01:46:23.070Z,16.39
2018-06-27T01:48:51.615Z,16.30
2018-06-27T01:51:20.361Z,16.17
2018-06-27T01:53:48.907Z,16.15
2018-06-27T01:56:17.475Z,16.19
2018-06-27T01:58:46.053Z,16.30
2018-06-27T02:01:14.641Z,16.28
2018-06-27T02:03:43.203Z,16.30
2018-06-27T02:06:11.808Z,16.26
2018-06-27T02:08:40.330Z,16.32
2018-06-27T02:11:09.087Z,16.57
2018-06-27T02:13:37.945Z,16.32
2018-06-27T02:16:06.842Z,16.12
2018-06-27T02:18:35.771Z,16.19
2018-06-27T02:21:04.713Z,16.20
2018-06-27T02:23:33.565Z,16.17
2018-06-27T02:26:02.429Z,16.04
2018-06-27T02:28:31.350Z,15.91
2018-06-27T02:31:00.021Z,15.81
2018-06-27T02:33:29.531Z,15.71
2018-06-27T02:35:58.979Z,15.59
2018-06-27T02:38:28.188Z,15.46
2018-06-27T02:40:56.848Z,15.34
2018-06-27T02:43:25.415Z,15.34
2018-06-27T02:45:54.133Z,15.36
2018-06-27T02:48:22.683Z,15.47
2018-06-27T02:50:51.432Z,15.42
2018-06-27T02:53:20.312Z,15.22
2018-06-27T02:55:49.188Z,14.63
2018-06-27T02:58:18.046Z,15.16
2018-06-27T03:00:46.708Z,15.10
2018-06-27T03:03:15.288Z,15.20
2018-06-27T03:05:43.836Z,15.17
2018-06-27T03:08:12.350Z,15.42
2018-06-27T03:10:41.128Z,15.68
2018-06-27T03:13:10.033Z,15.49
2018-06-27T03:15:38.896Z,15.33
2018-06-27T03:18:07.783Z,15.22
2018-06-27T03:20:36.403Z,15.11
2018-06-27T03:23:04.955Z,15.07
2018-06-27T03:25:33.515Z,15.03
2018-06-27T03:28:02.051Z,14.96
2018-06-27T03:30:30.809Z,14.95
2018-06-27T03:32:59.722Z,15.03
2018-06-27T03:35:28.296Z,15.04
2018-06-27T03:37:56.951Z,15.34
2018-06-27T03:40:25.558Z,15.49
2018-06-27T03:42:53.946Z,15.33
2018-06-27T03:45:22.716Z,15.07
2018-06-27T03:47:51.655Z,14.88
2018-06-27T03:50:20.506Z,14.78
2018-06-27T03:52:49.414Z,14.73
2018-06-27T03:55:18.283Z,14.78
2018-06-27T03:57:47.153Z,15.31
2018-06-27T04:00:16.031Z,15.33
2018-06-27T04:02:44.901Z,15.41
2018-06-27T04:05:13.867Z,15.56
2018-06-27T04:07:42.738Z,15.77
2018-06-27T04:10:11.733Z,15.96
2018-06-27T04:12:40.620Z,16.20
2018-06-27T04:15:09.263Z,16.46
2018-06-27T04:17:39.057Z,16.73
2018-06-27T04:20:07.634Z,16.68
2018-06-27T04:22:36.225Z,16.75
2018-06-27T04:25:05.387Z,16.86
2018-06-27T04:27:34.236Z,17.15
2018-06-27T04:30:03.651Z,17.48
2018-06-27T04:32:32.502Z,17.79
2018-06-27T04:35:01.160Z,18.03
2018-06-27T04:37:29.684Z,18.36
2018-06-27T04:39:58.236Z,18.54
2018-06-27T04:42:26.809Z,18.66
2018-06-27T04:44:55.556Z,18.90
2018-06-27T04:47:24.451Z,19.37
2018-06-27T04:49:53.493Z,19.59
2018-06-27T04:52:22.378Z,20.12
2018-06-27T04:54:51.276Z,19.58
2018-06-27T04:57:19.910Z,19.42
2018-06-27T04:59:48.428Z,19.61
2018-06-27T05:02:17.039Z,19.91
2018-06-27T05:04:45.623Z,20.01
2018-06-27T05:07:14.200Z,20.51
2018-06-27T05:09:42.755Z,20.95
2018-06-27T05:12:11.313Z,21.02
2018-06-27T05:14:39.828Z,21.32
2018-06-27T05:17:08.653Z,21.63
2018-06-27T05:19:43.094Z,21.90
2018-06-27T05:22:12.975Z,21.97
2018-06-27T05:24:42.289Z,21.92
2018-06-27T05:27:11.195Z,21.80
2018-06-27T05:29:40.121Z,21.86
2018-06-27T05:32:09.031Z,21.97
2018-06-27T05:34:37.933Z,21.85
2018-06-27T05:37:06.635Z,22.02
2018-06-27T05:39:35.260Z,22.48
2018-06-27T05:42:03.860Z,22.44
2018-06-27T05:44:32.473Z,22.46
2018-06-27T05:47:01.224Z,22.16
2018-06-27T05:49:30.101Z,22.56
2018-06-27T05:51:59.084Z,23.11
2018-06-27T05:54:28.155Z,22.95
2018-06-27T05:56:57.173Z,22.88
2018-06-27T05:59:25.633Z,22.83
2018-06-27T06:01:54.314Z,22.92
2018-06-27T06:04:22.935Z,23.10
2018-06-27T06:06:51.532Z,23.49
2018-06-27T06:09:20.155Z,23.03
2018-06-27T06:11:48.718Z,23.36
2018-06-27T06:14:17.258Z,23.48
2018-06-27T06:16:46.118Z,23.37
2018-06-27T06:19:14.954Z,23.70
2018-06-27T06:21:43.847Z,23.75
2018-06-27T06:24:12.776Z,23.88
2018-06-27T06:26:41.789Z,24.43
2018-06-27T06:29:10.832Z,24.18
2018-06-27T06:31:39.829Z,24.49
2018-06-27T06:34:08.713Z,24.78
2018-06-27T06:36:37.576Z,24.74
2018-06-27T06:39:08.223Z,24.83
2018-06-27T06:41:36.928Z,24.72
2018-06-27T06:44:05.732Z,24.83
2018-06-27T06:46:34.261Z,25.23
2018-06-27T06:49:02.786Z,25.28
2018-06-27T06:51:31.301Z,24.95
2018-06-27T06:53:59.866Z,25.18
2018-06-27T06:56:28.485Z,25.33
2018-06-27T06:58:57.023Z,25.45
2018-06-27T07:01:25.969Z,25.42
2018-06-27T07:03:54.815Z,25.39
2018-06-27T07:06:23.699Z,25.81
2018-06-27T07:08:52.601Z,25.28
2018-06-27T07:11:21.404Z,25.27
2018-06-27T07:13:49.943Z,25.33
2018-06-27T07:16:18.574Z,25.32
2018-06-27T07:18:47.215Z,25.51
2018-06-27T07:21:15.821Z,25.69
2018-06-27T07:23:44.460Z,25.97
2018-06-27T07:26:13.073Z,26.02
2018-06-27T07:28:41.658Z,26.69
2018-06-27T07:31:10.346Z,26.48
2018-06-27T07:33:38.913Z,26.95
2018-06-27T07:36:07.511Z,26.89
2018-06-27T07:38:36.056Z,26.57
2018-06-27T07:41:04.821Z,26.64
2018-06-27T07:43:33.669Z,26.48
2018-06-27T07:46:02.624Z,26.84
2018-06-27T07:48:31.576Z,26.78
2018-06-27T07:51:00.556Z,27.08
2018-06-27T07:53:31.736Z,26.89
2018-06-27T07:56:00.308Z,27.05
2018-06-27T07:58:29.137Z,26.87
2018-06-27T08:00:58.091Z,26.82
2018-06-27T08:03:27.058Z,26.93
2018-06-27T08:05:56.092Z,26.78
2018-06-27T08:08:24.936Z,26.66
2018-06-27T08:10:53.854Z,26.81
2018-06-27T08:13:22.796Z,26.90
2018-06-27T08:15:51.791Z,26.79
2018-06-27T08:18:20.883Z,26.68
2018-06-27T08:20:49.629Z,26.79
2018-06-27T08:23:18.351Z,26.98
2018-06-27T08:25:52.107Z,26.74
2018-06-27T08:28:22.438Z,26.78
2018-06-27T08:30:51.079Z,27.12
2018-06-27T08:33:19.693Z,27.40
2018-06-27T08:35:48.316Z,27.51
2018-06-27T08:38:16.866Z,27.74
2018-06-27T08:40:45.424Z,27.45
2018-06-27T08:43:14.341Z,27.32
2018-06-27T08:45:43.196Z,27.39
2018-06-27T08:48:12.704Z,27.50
2018-06-27T08:50:41.376Z,27.90
2018-06-27T08:53:09.916Z,28.17
2018-06-27T08:55:38.459Z,27.68
2018-06-27T08:58:07.104Z,27.43
2018-06-27T09:00:35.709Z,27.45
2018-06-27T09:03:04.341Z,27.46
2018-06-27T09:05:33.124Z,27.92
2018-06-27T09:08:01.767Z,27.49
2018-06-27T09:10:30.357Z,27.84
2018-06-27T09:12:58.956Z,28.02
2018-06-27T09:15:27.552Z,27.31
2018-06-27T09:17:56.165Z,28.16
2018-06-27T09:20:24.739Z,28.64
2018-06-27T09:22:53.359Z,29.28
2018-06-27T09:25:21.894Z,29.30
2018-06-27T09:27:50.519Z,28.68
2018-06-27T09:30:19.293Z,28.96
2018-06-27T09:32:48.224Z,29.28
2018-06-27T09:35:17.222Z,29.14
2018-06-27T09:37:46.254Z,29.29
2018-06-27T09:40:14.937Z,29.67
2018-06-27T09:42:43.589Z,29.86
2018-06-27T09:45:12.192Z,29.62
2018-06-27T09:47:40.909Z,29.70
2018-06-27T09:50:09.809Z,30.06
2018-06-27T09:52:38.792Z,29.74
2018-06-27T09:55:07.854Z,29.52
2018-06-27T09:57:36.924Z,29.76
2018-06-27T10:00:06.104Z,29.76
2018-06-27T10:02:35.064Z,29.25
2018-06-27T10:05:04.186Z,29.85
2018-06-27T10:07:33.068Z,29.98
2018-06-27T10:10:01.786Z,29.58
2018-06-27T10:12:30.344Z,29.71
2018-06-27T10:14:58.923Z,29.97
2018-06-27T10:17:27.658Z,29.62
2018-06-27T10:19:56.371Z,29.83
2018-06-27T10:22:25.067Z,30.26
2018-06-27T10:24:53.485Z,30.50
2018-06-27T10:27:22.126Z,29.99
2018-06-27T10:29:50.751Z,29.90
2018-06-27T10:32:19.371Z,29.85
2018-06-27T10:34:48.553Z,30.37
2018-06-27T10:37:17.096Z,30.57
2018-06-27T10:39:45.869Z,30.62
2018-06-27T10:42:14.767Z,30.13
2018-06-27T10:44:43.731Z,30.14
2018-06-27T10:47:12.646Z,30.76
2018-06-27T10:49:41.502Z,31.07
2018-06-27T10:52:10.401Z,30.63
2018-06-27T10:54:43.741Z,30.87
2018-06-27T10:57:12.881Z,30.56
2018-06-27T10:59:41.764Z,30.28
2018-06-27T11:02:10.815Z,29.47
2018-06-27T11:04:39.754Z,29.62
2018-06-27T11:07:08.771Z,30.59
2018-06-27T11:09:37.713Z,31.47
2018-06-27T11:12:06.688Z,31.26
2018-06-27T11:14:35.896Z,31.39
2018-06-27T11:17:04.622Z,31.34
2018-06-27T11:19:33.164Z,31.42
2018-06-27T11:22:01.964Z,31.39
2018-06-27T11:24:30.581Z,31.51
2018-06-27T11:26:59.170Z,31.55
2018-06-27T11:29:28.051Z,31.23
2018-06-27T11:31:56.654Z,31.13
2018-06-27T11:34:26.600Z,30.81
2018-06-27T11:36:55.233Z,31.15
2018-06-27T11:39:27.472Z,31.96
2018-06-27T11:42:01.822Z,31.86
2018-06-27T11:44:31.170Z,31.66
2018-06-27T11:47:00.257Z,31.73
2018-06-27T11:49:29.027Z,32.38
2018-06-27T11:51:58.955Z,31.95
2018-06-27T11:54:28.680Z,32.22
2018-06-27T11:56:57.328Z,32.10
2018-06-27T11:59:25.944Z,32.22
2018-06-27T12:01:54.521Z,32.32
2018-06-27T12:04:23.102Z,32.50
2018-06-27T12:06:51.766Z,32.43
2018-06-27T12:09:20.321Z,32.30
2018-06-27T12:11:49.402Z,32.09
2018-06-27T12:14:18.439Z,31.40
2018-06-27T12:16:47.495Z,31.91
2018-06-27T12:19:16.434Z,31.91
2018-06-27T12:21:45.228Z,31.97
2018-06-27T12:24:14.597Z,32.13
2018-06-27T12:26:43.216Z,31.91
2018-06-27T12:29:11.786Z,30.63
2018-06-27T12:31:40.654Z,31.21
2018-06-27T12:34:09.649Z,31.28
2018-06-27T12:36:38.550Z,31.39
2018-06-27T12:39:08.674Z,31.81
2018-06-27T12:41:38.114Z,32.19
2018-06-27T12:44:07.594Z,32.45
2018-06-27T12:46:36.816Z,32.64
2018-06-27T12:49:06.457Z,31.71
2018-06-27T12:51:35.269Z,32.06
2018-06-27T12:54:03.879Z,32.08
2018-06-27T12:56:32.494Z,31.63
2018-06-27T12:59:01.068Z,31.95
2018-06-27T13:01:29.730Z,32.08
2018-06-27T13:03:58.732Z,32.44
2018-06-27T13:06:27.641Z,32.24
2018-06-27T13:08:56.594Z,32.07
2018-06-27T13:11:25.456Z,32.61
2018-06-27T13:13:54.246Z,32.08
2018-06-27T13:16:22.984Z,31.52
2018-06-27T13:18:51.663Z,30.92
2018-06-27T13:21:20.233Z,30.96
2018-06-27T13:23:48.791Z,31.49
2018-06-27T13:26:17.364Z,32.05
2018-06-27T13:28:45.934Z,32.37
2018-06-27T13:31:14.564Z,32.52
2018-06-27T13:33:43.192Z,32.38
2018-06-27T13:36:11.984Z,32.42
2018-06-27T13:38:40.667Z,32.99
2018-06-27T13:41:09.332Z,33.03
2018-06-27T13:43:38.304Z,32.37
2018-06-27T13:46:07.275Z,32.76
2018-06-27T13:48:36.142Z,32.70
2018-06-27T13:51:05.138Z,32.65
2018-06-27T13:53:33.794Z,32.41
2018-06-27T13:56:02.324Z,32.53
2018-06-27T13:58:30.838Z,32.64
2018-06-27T14:00:59.416Z,32.65
2018-06-27T14:03:28.241Z,32.74
2018-06-27T14:05:56.925Z,32.86
2018-06-27T14:08:25.524Z,32.91
2018-06-27T14:10:54.132Z,33.28
2018-06-27T14:13:22.958Z,33.40
2018-06-27T14:15:51.879Z,32.84
2018-06-27T14:18:20.525Z,32.95
2018-06-27T14:20:49.181Z,33.06
2018-06-27T14:23:17.732Z,33.31
2018-06-27T14:25:46.335Z,33.58
2018-06-27T14:28:14.906Z,33.55
2018-06-27T14:30:43.447Z,32.69
2018-06-27T14:33:11.946Z,32.58
2018-06-27T14:35:40.697Z,32.76
2018-06-27T14:38:09.535Z,32.85
2018-06-27T14:40:38.181Z,33.50
2018-06-27T14:43:07.174Z,33.40
2018-06-27T14:45:36.201Z,32.83
2018-06-27T14:48:05.177Z,32.63
2018-06-27T14:50:34.112Z,32.58
2018-06-27T14:53:03.151Z,32.38
2018-06-27T14:55:31.823Z,32.38
2018-06-27T14:58:00.341Z,32.47
2018-06-27T15:00:29.205Z,32.64
2018-06-27T15:02:57.776Z,32.61
2018-06-27T15:05:26.401Z,32.33
2018-06-27T15:07:54.786Z,32.69
2018-06-27T15:10:23.441Z,32.05
2018-06-27T15:12:51.954Z,30.96
2018-06-27T15:15:20.507Z,30.61
2018-06-27T15:17:49.285Z,30.48
2018-06-27T15:20:18.144Z,31.23
2018-06-27T15:22:47.019Z,31.68
2018-06-27T15:25:15.921Z,32.07
2018-06-27T15:27:44.570Z,32.45
2018-06-27T15:30:13.247Z,32.44
2018-06-27T15:32:41.852Z,31.40
2018-06-27T15:35:10.541Z,30.83
2018-06-27T15:37:39.274Z,30.79
2018-06-27T15:40:08.259Z,31.29
2018-06-27T15:42:37.129Z,31.46
2018-06-27T15:45:06.200Z,31.16
2018-06-27T15:47:34.909Z,31.02
2018-06-27T15:50:03.604Z,31.17
2018-06-27T15:52:32.195Z,31.36
2018-06-27T15:55:00.775Z,30.54
2018-06-27T15:57:29.662Z,30.69
2018-06-27T15:59:58.552Z,30.94
2018-06-27T16:02:27.475Z,30.59
2018-06-27T16:04:56.489Z,30.68
2018-06-27T16:07:25.446Z,30.55
2018-06-27T16:09:54.090Z,30.72
2018-06-27T16:12:22.679Z,30.90
2018-06-27T16:14:51.300Z,30.56
2018-06-27T16:17:20.020Z,30.41
2018-06-27T16:19:48.752Z,30.52
2018-06-27T16:22:17.724Z,30.28
2018-06-27T16:24:46.596Z,30.05
2018-06-27T16:27:15.252Z,30.24
2018-06-27T16:29:44.209Z,30.07
2018-06-27T16:32:13.159Z,29.77
2018-06-27T16:34:42.056Z,29.76
2018-06-27T16:37:11.038Z,29.66
2018-06-27T16:39:39.706Z,30.01
2018-06-27T16:42:08.584Z,29.86
2018-06-27T16:44:37.122Z,29.78
2018-06-27T16:47:05.949Z,29.65
2018-06-27T16:49:34.805Z,29.54
2018-06-27T16:52:03.740Z,29.39
2018-06-27T16:54:32.601Z,29.65
2018-06-27T16:57:01.567Z,29.67
2018-06-27T16:59:30.257Z,29.79
2018-06-27T17:01:58.963Z,29.36
2018-06-27T17:04:27.574Z,29.46
2018-06-27T17:06:56.194Z,29.50
2018-06-27T17:09:24.906Z,29.46
2018-06-27T17:11:55.226Z,29.21
2018-06-27T17:14:24.166Z,28.42
2018-06-27T17:16:53.145Z,27.38
2018-06-27T17:19:22.061Z,26.72
2018-06-27T17:21:51.821Z,26.43
2018-06-27T17:24:21.197Z,26.09
2018-06-27T17:26:50.109Z,25.89
2018-06-27T17:29:18.961Z,25.81
2018-06-27T17:31:47.594Z,25.64
2018-06-27T17:34:16.811Z,25.54
2018-06-27T17:36:45.386Z,25.49
2018-06-27T17:39:14.066Z,25.43
2018-06-27T17:41:42.873Z,25.33
2018-06-27T17:44:11.744Z,25.28
2018-06-27T17:46:40.668Z,25.17
2018-06-27T17:49:09.624Z,25.06
2018-06-27T17:51:38.506Z,24.93
2018-06-27T17:54:07.463Z,24.75
2018-06-27T17:56:36.449Z,24.68
2018-06-27T17:59:05.710Z,24.53
2018-06-27T18:01:35.564Z,24.45
2018-06-27T18:04:04.469Z,24.49
2018-06-27T18:06:33.441Z,24.47
2018-06-27T18:09:02.434Z,24.40
2018-06-27T18:11:31.354Z,24.24
2018-06-27T18:13:59.994Z,24.08
2018-06-27T18:16:28.682Z,23.99
2018-06-27T18:18:57.272Z,23.84
2018-06-27T18:21:25.897Z,23.80
2018-06-27T18:23:54.722Z,23.60
2018-06-27T18:26:23.972Z,23.45
2018-06-27T18:28:52.904Z,23.28
2018-06-27T18:31:21.802Z,23.14
2018-06-27T18:33:50.532Z,22.99
2018-06-27T18:36:19.215Z,22.80
2018-06-27T18:38:47.852Z,22.70
2018-06-27T18:41:16.559Z,22.59
2018-06-27T18:43:45.154Z,22.45
2018-06-27T18:46:13.579Z,22.32
2018-06-27T18:48:42.211Z,22.21
2018-06-27T18:51:10.865Z,22.15
2018-06-27T18:53:39.431Z,22.05
2018-06-27T18:56:08.051Z,21.99
2018-06-27T18:58:36.703Z,21.92
2018-06-27T19:01:05.417Z,21.87
2018-06-27T19:03:34.254Z,21.83
2018-06-27T19:06:03.244Z,21.77
2018-06-27T19:08:32.250Z,21.77
2018-06-27T19:11:01.262Z,21.70
2018-06-27T19:13:30.256Z,21.64
2018-06-27T19:15:59.229Z,21.59
2018-06-27T19:18:29.005Z,21.53
2018-06-27T19:20:58.165Z,21.48
2018-06-27T19:23:27.122Z,21.43
2018-06-27T19:25:56.565Z,21.30
2018-06-27T19:28:25.337Z,21.11
2018-06-27T19:30:54.925Z,20.99
2018-06-27T19:33:23.622Z,20.95
2018-06-27T19:35:52.330Z,20.92
2018-06-27T19:38:21.118Z,20.95
2018-06-27T19:40:50.266Z,21.17
2018-06-27T19:43:18.877Z,21.17
2018-06-27T19:45:48.842Z,21.31
2018-06-27T19:48:17.493Z,21.28
2018-06-27T19:50:46.143Z,21.30
2018-06-27T19:53:14.769Z,21.63
2018-06-27T19:55:43.748Z,21.64
2018-06-27T19:58:12.812Z,21.67
2018-06-27T20:00:41.839Z,21.66
2018-06-27T20:03:10.789Z,21.69
2018-06-27T20:05:39.706Z,21.59
2018-06-27T20:08:08.682Z,21.49
2018-06-27T20:10:37.743Z,21.43
2018-06-27T20:13:07.745Z,21.29
2018-06-27T20:15:37.087Z,21.01
2018-06-27T20:18:06.085Z,21.08
2018-06-27T20:20:34.786Z,20.98
2018-06-27T20:23:03.484Z,21.05
2018-06-27T20:25:32.069Z,20.83
2018-06-27T20:28:00.707Z,20.64
2018-06-27T20:30:29.161Z,20.48
2018-06-27T20:32:57.799Z,20.25
2018-06-27T20:35:26.635Z,20.13
2018-06-27T20:37:55.311Z,19.87
2018-06-27T20:40:25.149Z,19.76
2018-06-27T20:42:53.961Z,19.67
2018-06-27T20:45:22.576Z,19.52
2018-06-27T20:47:51.922Z,19.44
2018-06-27T20:50:20.694Z,19.28
2018-06-27T20:52:49.744Z,19.58
2018-06-27T20:55:18.654Z,19.49
2018-06-27T20:57:47.617Z,20.23
2018-06-27T21:00:16.612Z,20.44
2018-06-27T21:02:45.721Z,20.58
2018-06-27T21:05:15.294Z,20.63
2018-06-27T21:07:45.039Z,20.91
2018-06-27T21:10:13.749Z,20.89
2018-06-27T21:12:42.411Z,20.93
2018-06-27T21:15:11.052Z,20.92
2018-06-27T21:17:39.653Z,20.92
2018-06-27T21:20:08.426Z,20.83
2018-06-27T21:22:37.428Z,20.69
2018-06-27T21:25:06.990Z,20.23
2018-06-27T21:27:36.046Z,19.74
2018-06-27T21:30:05.951Z,19.68
2018-06-27T21:32:35.019Z,19.31
2018-06-27T21:35:03.796Z,19.13
2018-06-27T21:37:32.411Z,18.86
2018-06-27T21:40:01.458Z,19.20
2018-06-27T21:42:30.096Z,19.13
2018-06-27T21:44:58.746Z,19.00
2018-06-27T21:47:27.418Z,19.65
2018-06-27T21:49:55.981Z,19.84
2018-06-27T21:52:24.551Z,19.83
2018-06-27T21:54:53.136Z,19.83
2018-06-27T21:57:21.715Z,19.58
2018-06-27T21:59:50.786Z,19.28
2018-06-27T22:02:21.596Z,18.93
2018-06-27T22:04:50.532Z,18.66
2018-06-27T22:07:19.591Z,18.52
2018-06-27T22:09:48.598Z,17.92
2018-06-27T22:12:17.545Z,17.42
2018-06-27T22:14:46.479Z,17.43
2018-06-27T22:17:15.456Z,17.27
2018-06-27T22:19:44.357Z,17.14
2018-06-27T22:22:15.646Z,17.07
2018-06-27T22:24:44.254Z,17.02
2018-06-27T22:27:12.914Z,17.02
2018-06-27T22:29:41.449Z,17.00
2018-06-27T22:32:10.090Z,16.92
2018-06-27T22:34:38.658Z,16.91
2018-06-27T22:37:07.221Z,16.91
2018-06-27T22:39:35.771Z,16.93
2018-06-27T22:42:04.828Z,16.93
2018-06-27T22:44:33.733Z,16.95
2018-06-27T22:47:02.631Z,16.87
2018-06-27T22:49:31.250Z,16.86
2018-06-27T22:51:59.935Z,16.87
2018-06-27T22:54:28.515Z,16.84
2018-06-27T22:56:57.090Z,16.95
2018-06-27T22:59:25.687Z,17.02
2018-06-27T23:01:54.379Z,16.95
2018-06-27T23:04:22.991Z,16.86
2018-06-27T23:06:51.582Z,16.80
2018-06-27T23:09:20.227Z,16.79
2018-06-27T23:11:49.008Z,16.81
2018-06-27T23:14:17.896Z,16.96
2018-06-27T23:16:46.803Z,17.04
2018-06-27T23:19:19.007Z,17.16
2018-06-27T23:21:50.089Z,17.22
2018-06-27T23:24:21.108Z,17.30
2018-06-27T23:26:50.244Z,17.38
2018-06-27T23:29:19.445Z,17.47
2018-06-27T23:31:49.161Z,17.49
2018-06-27T23:34:20.481Z,17.50
2018-06-27T23:36:51.385Z,17.46
2018-06-27T23:39:21.095Z,17.37
2018-06-27T23:41:51.850Z,17.23
2018-06-27T23:44:20.437Z,17.21
2018-06-27T23:46:49.008Z,17.18
2018-06-27T23:49:17.525Z,17.23
2018-06-27T23:51:46.266Z,17.15
2018-06-27T23:54:14.859Z,17.12
2018-06-27T23:56:43.728Z,16.17
2018-06-27T23:59:12.376Z,17.04
